Detall de PIREP

Printer-friendly versionPDF version

[2011/06/26 07:24:00]
Flight IATA:CT1004
Pilot Number:026
Company ICAO:CAT
Aircraft Type:DC85/A
PAX:132
Departing Airport: LFMP
Destination Airport: LEAL
Alternate Airport:LEVC
Online: VATSIM
Route:BGR UN855 POS UL129 MJV UN851 BRUNO
Flight Level:F310
No Slew and time accel
No pause
Crash detect
Detect pilot in Cockpit between each 30 and 45 minutes
07:24 Zero fuel Weight: 178156 Lbs, Fuel Weight: 23981 Lbs
07:24 VATSIM:LFMP 260700Z VRB02KT CAVOK 25/12 Q1021 NOSIG
07:24 VATSIM:LEAL 260700Z 00000KT CAVOK 24/17 Q1021 NOSIG
07:24 VOICE CATALONIAN / FLAMA DEL CANIGO
07:27 Parking Brakes off
07:32 Take-off
07:32 Take off Weight: 201236 Lbs
07:32 Wind: 074º @ 005 Knots Heading: 330º
07:32 POS N42º 45´ 08´´ E002º 51´ 48´´
07:32 Gear Up: 169 Knots
07:32 Flaps:3 at 169 Knots
07:34 Flaps:2 at 205 Knots
07:34 Flaps:1 at 207 Knots
07:36 Flaps:0 at 223 Knots
07:47 Wind:011º@002 Knots Heading: 178º Ground Speed: 433 Knots Altitude 29471 ft
07:48 TOC
07:48 Fuel Weight: 18092 Lb
08:02 Wind:036º@001 Knots Heading: 212º Ground Speed: 483 Knots Altitude 31220 ft
08:08 TOD
08:08 Fuel Weight: 13399 Lb
08:17 Wind:099º@019 Knots Heading: 247º Ground Speed: 396 Knots Altitude 17995 ft
08:30 Gear Down: 216 Knots
08:30 Flaps:1 at 212 Knots
08:31 Flaps:2 at 138 Knots
08:31 Flaps:3 at 148 Knots
08:32 Wind:093º@000 Knots Heading: 264º Ground Speed: 152 Knots Altitude 1545 ft
08:32 Flaps:4 at 139 Knots
08:33 Flaps:5 at 127 Knots
08:34 TouchDown:Rate -150 ft/min Speed: 120 Knots
08:34 VATSIM:LEAL 260800Z 00000KT CAVOK 27/16 Q1022 NOSIG
08:34 Land
08:34 Wind:090º@000 Knots
08:34 Heading: 278º
08:34 Flight Duration: 01:02
08:34 Landing Weight: 189361 Lbs
08:34 POS N38º 16´ 56´´ W000º 33´ 32´´
08:37 Parking brakes on
08:37 Block to Block Duration: 01:10
08:37 Final Fuel: 11005 Lbls
08:37 Spent Fuel: 12976 Lbls
08:37 Flight Length: 396 NM
08:37 TOD Land Length: 138 NM

Exportar CSV

Powered by Drupal - Modified by Danger4k